sensor_id;sensor_type;location;lat;lon;timestamp;P1;durP1;ratioP1;P2;durP2;ratioP2
19032;SDS011;9649;51.042;13.804;2023-05-10T00:04:32;4.03;;;1.70;;
19032;SDS011;9649;51.042;13.804;2023-05-10T00:09:35;2.25;;;1.70;;
19032;SDS011;9649;51.042;13.804;2023-05-10T00:14:38;3.15;;;1.70;;
19032;SDS011;9649;51.042;13.804;2023-05-10T00:19:42;2.53;;;1.65;;
19032;SDS011;9649;51.042;13.804;2023-05-10T00:24:44;3.13;;;2.00;;
19032;SDS011;9649;51.042;13.804;2023-05-10T00:29:47;2.95;;;1.80;;
19032;SDS011;9649;51.042;13.804;2023-05-10T00:34:51;3.22;;;1.80;;
19032;SDS011;9649;51.042;13.804;2023-05-10T00:39:54;2.25;;;1.70;;
19032;SDS011;9649;51.042;13.804;2023-05-10T00:44:57;2.72;;;1.90;;
19032;SDS011;9649;51.042;13.804;2023-05-10T00:50:01;3.33;;;1.80;;
19032;SDS011;9649;51.042;13.804;2023-05-10T00:55:04;3.45;;;1.88;;
19032;SDS011;9649;51.042;13.804;2023-05-10T01:00:08;2.00;;;1.60;;
19032;SDS011;9649;51.042;13.804;2023-05-10T01:05:14;1.58;;;1.40;;
19032;SDS011;9649;51.042;13.804;2023-05-10T01:10:17;3.40;;;1.40;;
19032;SDS011;9649;51.042;13.804;2023-05-10T01:15:20;2.55;;;1.80;;
19032;SDS011;9649;51.042;13.804;2023-05-10T01:20:25;3.50;;;1.70;;
19032;SDS011;9649;51.042;13.804;2023-05-10T01:25:44;2.42;;;1.60;;
19032;SDS011;9649;51.042;13.804;2023-05-10T01:36:39;2.67;;;1.90;;
19032;SDS011;9649;51.042;13.804;2023-05-10T01:41:48;4.05;;;1.70;;
19032;SDS011;9649;51.042;13.804;2023-05-10T01:46:57;5.65;;;1.83;;
19032;SDS011;9649;51.042;13.804;2023-05-10T01:52:08;2.37;;;1.90;;
19032;SDS011;9649;51.042;13.804;2023-05-10T01:57:13;3.75;;;1.77;;
19032;SDS011;9649;51.042;13.804;2023-05-10T02:02:18;4.20;;;1.80;;
19032;SDS011;9649;51.042;13.804;2023-05-10T02:07:24;2.42;;;1.85;;
19032;SDS011;9649;51.042;13.804;2023-05-10T02:12:28;6.63;;;1.55;;
19032;SDS011;9649;51.042;13.804;2023-05-10T02:17:33;2.80;;;1.67;;
19032;SDS011;9649;51.042;13.804;2023-05-10T02:22:38;2.63;;;1.60;;
19032;SDS011;9649;51.042;13.804;2023-05-10T02:27:43;2.25;;;1.70;;
19032;SDS011;9649;51.042;13.804;2023-05-10T02:32:48;2.40;;;1.80;;
19032;SDS011;9649;51.042;13.804;2023-05-10T02:37:54;2.33;;;1.63;;
19032;SDS011;9649;51.042;13.804;2023-05-10T02:42:58;1.83;;;1.63;;
19032;SDS011;9649;51.042;13.804;2023-05-10T02:48:03;2.33;;;1.83;;
19032;SDS011;9649;51.042;13.804;2023-05-10T02:53:09;2.50;;;1.87;;
19032;SDS011;9649;51.042;13.804;2023-05-10T02:58:16;2.50;;;1.70;;
19032;SDS011;9649;51.042;13.804;2023-05-10T03:03:20;4.70;;;1.90;;
19032;SDS011;9649;51.042;13.804;2023-05-10T03:08:24;3.07;;;1.53;;
19032;SDS011;9649;51.042;13.804;2023-05-10T03:13:31;4.13;;;1.70;;
19032;SDS011;9649;51.042;13.804;2023-05-10T03:18:41;2.70;;;1.90;;
19032;SDS011;9649;51.042;13.804;2023-05-10T03:23:50;3.17;;;1.90;;
19032;SDS011;9649;51.042;13.804;2023-05-10T03:28:56;3.87;;;1.80;;
19032;SDS011;9649;51.042;13.804;2023-05-10T03:34:00;2.57;;;1.70;;
19032;SDS011;9649;51.042;13.804;2023-05-10T03:39:04;2.67;;;1.83;;
19032;SDS011;9649;51.042;13.804;2023-05-10T03:44:07;2.00;;;1.80;;
19032;SDS011;9649;51.042;13.804;2023-05-10T03:49:10;6.00;;;2.10;;
19032;SDS011;9649;51.042;13.804;2023-05-10T03:54:14;5.60;;;2.40;;
19032;SDS011;9649;51.042;13.804;2023-05-10T03:59:17;8.03;;;1.80;;
19032;SDS011;9649;51.042;13.804;2023-05-10T04:04:19;5.40;;;1.98;;
19032;SDS011;9649;51.042;13.804;2023-05-10T04:09:24;1.73;;;1.60;;
19032;SDS011;9649;51.042;13.804;2023-05-10T04:14:27;3.28;;;1.80;;
19032;SDS011;9649;51.042;13.804;2023-05-10T04:19:30;4.77;;;1.97;;
19032;SDS011;9649;51.042;13.804;2023-05-10T04:24:34;3.57;;;1.63;;
19032;SDS011;9649;51.042;13.804;2023-05-10T04:29:36;2.70;;;1.63;;
19032;SDS011;9649;51.042;13.804;2023-05-10T04:34:39;2.50;;;1.53;;
19032;SDS011;9649;51.042;13.804;2023-05-10T04:39:43;4.43;;;1.60;;
19032;SDS011;9649;51.042;13.804;2023-05-10T04:44:46;3.43;;;1.77;;
19032;SDS011;9649;51.042;13.804;2023-05-10T04:49:48;3.42;;;1.67;;
19032;SDS011;9649;51.042;13.804;2023-05-10T04:54:53;4.07;;;2.00;;
19032;SDS011;9649;51.042;13.804;2023-05-10T04:59:55;7.35;;;2.13;;
19032;SDS011;9649;51.042;13.804;2023-05-10T05:04:58;4.75;;;1.92;;
19032;SDS011;9649;51.042;13.804;2023-05-10T05:10:02;1.92;;;1.50;;
19032;SDS011;9649;51.042;13.804;2023-05-10T05:15:06;4.05;;;1.92;;
19032;SDS011;9649;51.042;13.804;2023-05-10T05:20:10;4.07;;;1.67;;
19032;SDS011;9649;51.042;13.804;2023-05-10T05:25:15;2.50;;;1.73;;
19032;SDS011;9649;51.042;13.804;2023-05-10T05:30:18;3.42;;;1.75;;
19032;SDS011;9649;51.042;13.804;2023-05-10T05:35:21;4.63;;;1.63;;
19032;SDS011;9649;51.042;13.804;2023-05-10T05:40:25;3.25;;;1.73;;
19032;SDS011;9649;51.042;13.804;2023-05-10T05:45:28;2.33;;;1.85;;
19032;SDS011;9649;51.042;13.804;2023-05-10T05:50:30;3.88;;;1.85;;
19032;SDS011;9649;51.042;13.804;2023-05-10T05:55:34;3.58;;;1.90;;
19032;SDS011;9649;51.042;13.804;2023-05-10T06:00:37;8.02;;;1.92;;
19032;SDS011;9649;51.042;13.804;2023-05-10T06:05:40;1.90;;;1.60;;
19032;SDS011;9649;51.042;13.804;2023-05-10T06:10:44;7.00;;;1.90;;
19032;SDS011;9649;51.042;13.804;2023-05-10T06:15:46;5.53;;;1.70;;
19032;SDS011;9649;51.042;13.804;2023-05-10T06:20:49;2.95;;;2.05;;
19032;SDS011;9649;51.042;13.804;2023-05-10T06:25:54;4.82;;;1.77;;
19032;SDS011;9649;51.042;13.804;2023-05-10T06:30:56;4.18;;;1.83;;
19032;SDS011;9649;51.042;13.804;2023-05-10T06:35:59;3.30;;;1.50;;
19032;SDS011;9649;51.042;13.804;2023-05-10T06:41:04;3.83;;;1.90;;
19032;SDS011;9649;51.042;13.804;2023-05-10T06:46:07;3.28;;;1.55;;
19032;SDS011;9649;51.042;13.804;2023-05-10T06:51:09;4.57;;;1.90;;
19032;SDS011;9649;51.042;13.804;2023-05-10T06:56:13;7.00;;;2.55;;
19032;SDS011;9649;51.042;13.804;2023-05-10T07:01:16;6.18;;;1.77;;
19032;SDS011;9649;51.042;13.804;2023-05-10T07:06:19;5.30;;;2.67;;
19032;SDS011;9649;51.042;13.804;2023-05-10T07:11:35;2.85;;;1.88;;
19032;SDS011;9649;51.042;13.804;2023-05-10T07:16:38;3.28;;;1.95;;
19032;SDS011;9649;51.042;13.804;2023-05-10T07:21:41;3.60;;;2.05;;
19032;SDS011;9649;51.042;13.804;2023-05-10T07:26:45;3.17;;;2.13;;
19032;SDS011;9649;51.042;13.804;2023-05-10T07:31:48;3.97;;;2.17;;
19032;SDS011;9649;51.042;13.804;2023-05-10T07:36:51;2.83;;;1.65;;
19032;SDS011;9649;51.042;13.804;2023-05-10T07:41:55;3.50;;;2.13;;
19032;SDS011;9649;51.042;13.804;2023-05-10T07:46:58;3.95;;;2.03;;
19032;SDS011;9649;51.042;13.804;2023-05-10T07:52:00;9.52;;;2.40;;
19032;SDS011;9649;51.042;13.804;2023-05-10T07:57:06;4.82;;;2.42;;
19032;SDS011;9649;51.042;13.804;2023-05-10T08:02:08;3.33;;;2.20;;
19032;SDS011;9649;51.042;13.804;2023-05-10T08:07:11;5.45;;;2.30;;
19032;SDS011;9649;51.042;13.804;2023-05-10T08:12:15;3.72;;;2.60;;
19032;SDS011;9649;51.042;13.804;2023-05-10T08:17:18;6.32;;;2.75;;
19032;SDS011;9649;51.042;13.804;2023-05-10T08:22:23;7.47;;;2.28;;
19032;SDS011;9649;51.042;13.804;2023-05-10T08:27:27;7.10;;;2.35;;
19032;SDS011;9649;51.042;13.804;2023-05-10T08:32:30;7.35;;;2.70;;
19032;SDS011;9649;51.042;13.804;2023-05-10T08:37:33;4.45;;;2.30;;
19032;SDS011;9649;51.042;13.804;2023-05-10T08:42:38;3.25;;;2.13;;
19032;SDS011;9649;51.042;13.804;2023-05-10T08:47:44;7.63;;;2.63;;
19032;SDS011;9649;51.042;13.804;2023-05-10T08:52:47;10.70;;;1.95;;
19032;SDS011;9649;51.042;13.804;2023-05-10T08:57:54;4.88;;;2.00;;
19032;SDS011;9649;51.042;13.804;2023-05-10T09:02:57;8.00;;;2.40;;
19032;SDS011;9649;51.042;13.804;2023-05-10T09:08:00;4.50;;;2.33;;
19032;SDS011;9649;51.042;13.804;2023-05-10T09:13:04;7.18;;;2.20;;
19032;SDS011;9649;51.042;13.804;2023-05-10T09:18:07;5.72;;;2.38;;
19032;SDS011;9649;51.042;13.804;2023-05-10T09:23:10;3.17;;;2.13;;
19032;SDS011;9649;51.042;13.804;2023-05-10T09:28:14;3.85;;;2.40;;
19032;SDS011;9649;51.042;13.804;2023-05-10T09:33:17;7.47;;;2.30;;
19032;SDS011;9649;51.042;13.804;2023-05-10T09:38:20;8.63;;;2.22;;
19032;SDS011;9649;51.042;13.804;2023-05-10T09:43:25;5.57;;;2.20;;
19032;SDS011;9649;51.042;13.804;2023-05-10T09:48:28;6.63;;;2.30;;
19032;SDS011;9649;51.042;13.804;2023-05-10T09:53:31;3.38;;;1.90;;
19032;SDS011;9649;51.042;13.804;2023-05-10T09:58:36;4.90;;;2.13;;
19032;SDS011;9649;51.042;13.804;2023-05-10T10:03:41;6.40;;;2.60;;
19032;SDS011;9649;51.042;13.804;2023-05-10T10:08:45;3.75;;;2.30;;
19032;SDS011;9649;51.042;13.804;2023-05-10T10:13:49;3.90;;;2.28;;
19032;SDS011;9649;51.042;13.804;2023-05-10T10:18:52;2.88;;;2.00;;
19032;SDS011;9649;51.042;13.804;2023-05-10T10:23:55;4.47;;;2.65;;
19032;SDS011;9649;51.042;13.804;2023-05-10T10:29:03;5.88;;;2.00;;
19032;SDS011;9649;51.042;13.804;2023-05-10T10:34:17;3.03;;;2.25;;
19032;SDS011;9649;51.042;13.804;2023-05-10T10:39:27;4.55;;;2.55;;
19032;SDS011;9649;51.042;13.804;2023-05-10T10:44:38;17.08;;;6.72;;
19032;SDS011;9649;51.042;13.804;2023-05-10T10:49:43;9.30;;;4.43;;
19032;SDS011;9649;51.042;13.804;2023-05-10T10:54:50;6.18;;;3.00;;
19032;SDS011;9649;51.042;13.804;2023-05-10T11:05:36;3.58;;;2.03;;
19032;SDS011;9649;51.042;13.804;2023-05-10T11:10:49;9.13;;;4.50;;
19032;SDS011;9649;51.042;13.804;2023-05-10T11:15:55;7.32;;;4.20;;
19032;SDS011;9649;51.042;13.804;2023-05-10T11:21:00;9.55;;;4.32;;
19032;SDS011;9649;51.042;13.804;2023-05-10T11:26:07;5.40;;;2.92;;
19032;SDS011;9649;51.042;13.804;2023-05-10T11:31:14;4.53;;;2.20;;
19032;SDS011;9649;51.042;13.804;2023-05-10T11:36:19;5.18;;;2.47;;
19032;SDS011;9649;51.042;13.804;2023-05-10T11:41:23;4.20;;;2.20;;
19032;SDS011;9649;51.042;13.804;2023-05-10T11:46:28;7.10;;;2.25;;
19032;SDS011;9649;51.042;13.804;2023-05-10T11:51:32;5.38;;;2.83;;
19032;SDS011;9649;51.042;13.804;2023-05-10T11:56:37;5.15;;;1.95;;
19032;SDS011;9649;51.042;13.804;2023-05-10T12:01:41;4.18;;;2.20;;
19032;SDS011;9649;51.042;13.804;2023-05-10T12:06:44;4.28;;;2.22;;
19032;SDS011;9649;51.042;13.804;2023-05-10T12:11:47;3.65;;;2.38;;
19032;SDS011;9649;51.042;13.804;2023-05-10T12:16:51;5.65;;;2.72;;
19032;SDS011;9649;51.042;13.804;2023-05-10T12:21:54;4.97;;;2.63;;
19032;SDS011;9649;51.042;13.804;2023-05-10T12:26:57;6.38;;;2.50;;
19032;SDS011;9649;51.042;13.804;2023-05-10T12:32:01;4.75;;;2.55;;
19032;SDS011;9649;51.042;13.804;2023-05-10T12:37:04;5.63;;;2.75;;
19032;SDS011;9649;51.042;13.804;2023-05-10T12:42:07;5.00;;;2.22;;
19032;SDS011;9649;51.042;13.804;2023-05-10T12:47:11;4.32;;;2.20;;
19032;SDS011;9649;51.042;13.804;2023-05-10T12:52:13;6.95;;;2.40;;
19032;SDS011;9649;51.042;13.804;2023-05-10T12:57:16;8.77;;;2.50;;
19032;SDS011;9649;51.042;13.804;2023-05-10T13:02:20;5.25;;;2.10;;
19032;SDS011;9649;51.042;13.804;2023-05-10T13:07:24;5.57;;;2.42;;
19032;SDS011;9649;51.042;13.804;2023-05-10T13:12:27;4.57;;;2.55;;
19032;SDS011;9649;51.042;13.804;2023-05-10T13:17:31;4.00;;;2.25;;
19032;SDS011;9649;51.042;13.804;2023-05-10T13:22:34;4.35;;;2.38;;
19032;SDS011;9649;51.042;13.804;2023-05-10T13:27:41;4.30;;;2.42;;
19032;SDS011;9649;51.042;13.804;2023-05-10T13:32:45;6.60;;;2.28;;
19032;SDS011;9649;51.042;13.804;2023-05-10T13:37:47;2.83;;;1.95;;
19032;SDS011;9649;51.042;13.804;2023-05-10T13:42:51;3.08;;;2.13;;
19032;SDS011;9649;51.042;13.804;2023-05-10T13:47:55;3.33;;;2.00;;
19032;SDS011;9649;51.042;13.804;2023-05-10T13:52:58;4.28;;;2.10;;
19032;SDS011;9649;51.042;13.804;2023-05-10T13:58:01;2.22;;;1.80;;
19032;SDS011;9649;51.042;13.804;2023-05-10T14:03:05;6.15;;;2.03;;
19032;SDS011;9649;51.042;13.804;2023-05-10T14:08:10;5.30;;;2.58;;
19032;SDS011;9649;51.042;13.804;2023-05-10T14:13:14;4.50;;;2.13;;
19032;SDS011;9649;51.042;13.804;2023-05-10T14:18:18;5.82;;;2.40;;
19032;SDS011;9649;51.042;13.804;2023-05-10T14:23:21;2.88;;;2.42;;
19032;SDS011;9649;51.042;13.804;2023-05-10T14:28:25;7.03;;;2.30;;
19032;SDS011;9649;51.042;13.804;2023-05-10T14:33:30;4.75;;;2.45;;
19032;SDS011;9649;51.042;13.804;2023-05-10T14:38:32;3.65;;;2.25;;
19032;SDS011;9649;51.042;13.804;2023-05-10T14:43:35;3.70;;;2.30;;
19032;SDS011;9649;51.042;13.804;2023-05-10T14:48:39;3.20;;;2.10;;
19032;SDS011;9649;51.042;13.804;2023-05-10T14:53:42;5.60;;;2.50;;
19032;SDS011;9649;51.042;13.804;2023-05-10T14:58:45;8.43;;;2.25;;
19032;SDS011;9649;51.042;13.804;2023-05-10T15:03:48;2.60;;;2.20;;
19032;SDS011;9649;51.042;13.804;2023-05-10T15:08:52;4.13;;;2.13;;
19032;SDS011;9649;51.042;13.804;2023-05-10T15:13:55;2.38;;;2.10;;
19032;SDS011;9649;51.042;13.804;2023-05-10T15:18:59;4.50;;;2.05;;
19032;SDS011;9649;51.042;13.804;2023-05-10T15:24:01;7.43;;;2.40;;
19032;SDS011;9649;51.042;13.804;2023-05-10T15:29:04;3.25;;;2.67;;
19032;SDS011;9649;51.042;13.804;2023-05-10T15:34:08;5.63;;;2.65;;
19032;SDS011;9649;51.042;13.804;2023-05-10T15:39:11;6.35;;;2.13;;
19032;SDS011;9649;51.042;13.804;2023-05-10T15:44:14;5.20;;;2.17;;
19032;SDS011;9649;51.042;13.804;2023-05-10T15:49:18;4.75;;;2.17;;
19032;SDS011;9649;51.042;13.804;2023-05-10T15:54:20;3.72;;;2.50;;
19032;SDS011;9649;51.042;13.804;2023-05-10T15:59:23;4.35;;;2.55;;
19032;SDS011;9649;51.042;13.804;2023-05-10T16:04:27;5.43;;;2.50;;
19032;SDS011;9649;51.042;13.804;2023-05-10T16:09:30;6.03;;;2.47;;
19032;SDS011;9649;51.042;13.804;2023-05-10T16:14:33;4.82;;;2.40;;
19032;SDS011;9649;51.042;13.804;2023-05-10T16:19:37;9.27;;;2.85;;
19032;SDS011;9649;51.042;13.804;2023-05-10T16:24:39;3.10;;;2.53;;
19032;SDS011;9649;51.042;13.804;2023-05-10T16:29:44;4.90;;;2.70;;
19032;SDS011;9649;51.042;13.804;2023-05-10T16:34:49;4.05;;;2.30;;
19032;SDS011;9649;51.042;13.804;2023-05-10T16:39:53;5.90;;;2.67;;
19032;SDS011;9649;51.042;13.804;2023-05-10T16:44:56;3.22;;;2.30;;
19032;SDS011;9649;51.042;13.804;2023-05-10T16:50:00;3.78;;;2.70;;
19032;SDS011;9649;51.042;13.804;2023-05-10T16:55:03;3.28;;;2.47;;
19032;SDS011;9649;51.042;13.804;2023-05-10T17:00:07;4.40;;;2.30;;
19032;SDS011;9649;51.042;13.804;2023-05-10T17:05:13;4.35;;;2.80;;
19032;SDS011;9649;51.042;13.804;2023-05-10T17:10:16;4.78;;;2.78;;
19032;SDS011;9649;51.042;13.804;2023-05-10T17:15:19;4.22;;;2.60;;
19032;SDS011;9649;51.042;13.804;2023-05-10T17:20:23;6.68;;;2.78;;
19032;SDS011;9649;51.042;13.804;2023-05-10T17:25:26;9.93;;;2.78;;
19032;SDS011;9649;51.042;13.804;2023-05-10T17:30:29;3.78;;;2.92;;
19032;SDS011;9649;51.042;13.804;2023-05-10T17:35:34;4.75;;;2.95;;
19032;SDS011;9649;51.042;13.804;2023-05-10T17:40:38;3.67;;;2.83;;
19032;SDS011;9649;51.042;13.804;2023-05-10T17:45:41;3.47;;;2.55;;
19032;SDS011;9649;51.042;13.804;2023-05-10T17:50:49;3.13;;;2.65;;
19032;SDS011;9649;51.042;13.804;2023-05-10T17:55:52;7.22;;;2.78;;
19032;SDS011;9649;51.042;13.804;2023-05-10T18:00:58;2.80;;;2.50;;
19032;SDS011;9649;51.042;13.804;2023-05-10T18:06:02;3.63;;;2.90;;
19032;SDS011;9649;51.042;13.804;2023-05-10T18:11:05;6.45;;;2.35;;
19032;SDS011;9649;51.042;13.804;2023-05-10T18:16:08;3.10;;;2.50;;
19032;SDS011;9649;51.042;13.804;2023-05-10T18:21:14;4.22;;;1.95;;
19032;SDS011;9649;51.042;13.804;2023-05-10T18:26:17;2.65;;;2.08;;
19032;SDS011;9649;51.042;13.804;2023-05-10T18:31:20;2.75;;;1.90;;
19032;SDS011;9649;51.042;13.804;2023-05-10T18:36:25;2.67;;;1.80;;
19032;SDS011;9649;51.042;13.804;2023-05-10T18:41:30;3.30;;;1.85;;
19032;SDS011;9649;51.042;13.804;2023-05-10T18:46:33;2.10;;;1.70;;
19032;SDS011;9649;51.042;13.804;2023-05-10T18:51:37;2.72;;;1.90;;
19032;SDS011;9649;51.042;13.804;2023-05-10T18:56:39;2.15;;;1.83;;
19032;SDS011;9649;51.042;13.804;2023-05-10T19:01:45;3.90;;;1.90;;
19032;SDS011;9649;51.042;13.804;2023-05-10T19:06:52;2.92;;;1.88;;
19032;SDS011;9649;51.042;13.804;2023-05-10T19:11:55;2.50;;;1.60;;
19032;SDS011;9649;51.042;13.804;2023-05-10T19:16:58;2.10;;;1.77;;
19032;SDS011;9649;51.042;13.804;2023-05-10T19:22:02;2.72;;;1.88;;
19032;SDS011;9649;51.042;13.804;2023-05-10T19:27:05;3.47;;;1.83;;
19032;SDS011;9649;51.042;13.804;2023-05-10T19:32:09;3.70;;;2.05;;
19032;SDS011;9649;51.042;13.804;2023-05-10T19:37:13;4.45;;;2.08;;
19032;SDS011;9649;51.042;13.804;2023-05-10T19:42:16;2.83;;;2.40;;
19032;SDS011;9649;51.042;13.804;2023-05-10T19:47:19;4.18;;;2.80;;
19032;SDS011;9649;51.042;13.804;2023-05-10T19:52:23;3.38;;;2.55;;
19032;SDS011;9649;51.042;13.804;2023-05-10T19:57:25;3.35;;;2.67;;
19032;SDS011;9649;51.042;13.804;2023-05-10T20:02:28;4.82;;;2.45;;
19032;SDS011;9649;51.042;13.804;2023-05-10T20:07:32;4.43;;;2.65;;
19032;SDS011;9649;51.042;13.804;2023-05-10T20:12:35;4.43;;;2.70;;
19032;SDS011;9649;51.042;13.804;2023-05-10T20:17:38;3.85;;;2.75;;
19032;SDS011;9649;51.042;13.804;2023-05-10T20:22:42;4.50;;;2.97;;
19032;SDS011;9649;51.042;13.804;2023-05-10T20:27:45;6.40;;;3.30;;
19032;SDS011;9649;51.042;13.804;2023-05-10T20:32:50;3.72;;;2.42;;
19032;SDS011;9649;51.042;13.804;2023-05-10T20:37:55;4.75;;;3.08;;
19032;SDS011;9649;51.042;13.804;2023-05-10T20:42:57;2.70;;;2.40;;
19032;SDS011;9649;51.042;13.804;2023-05-10T20:48:00;5.25;;;2.78;;
19032;SDS011;9649;51.042;13.804;2023-05-10T20:53:05;3.90;;;2.70;;
19032;SDS011;9649;51.042;13.804;2023-05-10T20:58:07;5.07;;;3.13;;
19032;SDS011;9649;51.042;13.804;2023-05-10T21:03:10;6.47;;;3.20;;
19032;SDS011;9649;51.042;13.804;2023-05-10T21:08:14;4.10;;;3.10;;
19032;SDS011;9649;51.042;13.804;2023-05-10T21:13:17;6.45;;;3.60;;
19032;SDS011;9649;51.042;13.804;2023-05-10T21:18:19;6.05;;;4.47;;
19032;SDS011;9649;51.042;13.804;2023-05-10T21:23:24;5.10;;;3.47;;
19032;SDS011;9649;51.042;13.804;2023-05-10T21:28:27;5.57;;;3.47;;
19032;SDS011;9649;51.042;13.804;2023-05-10T21:33:29;4.38;;;3.15;;
19032;SDS011;9649;51.042;13.804;2023-05-10T21:38:33;6.63;;;4.20;;
19032;SDS011;9649;51.042;13.804;2023-05-10T21:43:36;5.60;;;4.03;;
19032;SDS011;9649;51.042;13.804;2023-05-10T21:48:39;8.57;;;4.05;;
19032;SDS011;9649;51.042;13.804;2023-05-10T21:53:43;7.32;;;4.40;;
19032;SDS011;9649;51.042;13.804;2023-05-10T21:58:46;5.70;;;3.88;;
19032;SDS011;9649;51.042;13.804;2023-05-10T22:03:48;5.28;;;4.00;;
19032;SDS011;9649;51.042;13.804;2023-05-10T22:08:52;8.40;;;4.18;;
19032;SDS011;9649;51.042;13.804;2023-05-10T22:13:55;5.85;;;4.10;;
19032;SDS011;9649;51.042;13.804;2023-05-10T22:18:58;6.47;;;4.32;;
19032;SDS011;9649;51.042;13.804;2023-05-10T22:24:02;5.53;;;4.07;;
19032;SDS011;9649;51.042;13.804;2023-05-10T22:29:05;5.10;;;4.15;;
19032;SDS011;9649;51.042;13.804;2023-05-10T22:34:08;7.88;;;4.82;;
19032;SDS011;9649;51.042;13.804;2023-05-10T22:39:12;6.55;;;5.07;;
19032;SDS011;9649;51.042;13.804;2023-05-10T22:44:14;5.63;;;4.22;;
19032;SDS011;9649;51.042;13.804;2023-05-10T22:49:17;7.38;;;4.85;;
19032;SDS011;9649;51.042;13.804;2023-05-10T22:54:21;7.38;;;4.97;;
19032;SDS011;9649;51.042;13.804;2023-05-10T22:59:24;8.73;;;5.20;;
19032;SDS011;9649;51.042;13.804;2023-05-10T23:04:28;7.30;;;5.32;;
19032;SDS011;9649;51.042;13.804;2023-05-10T23:09:32;6.03;;;5.28;;
19032;SDS011;9649;51.042;13.804;2023-05-10T23:14:35;8.32;;;5.60;;
19032;SDS011;9649;51.042;13.804;2023-05-10T23:19:38;6.72;;;5.30;;
19032;SDS011;9649;51.042;13.804;2023-05-10T23:24:42;11.68;;;5.45;;
19032;SDS011;9649;51.042;13.804;2023-05-10T23:29:44;8.63;;;5.25;;
19032;SDS011;9649;51.042;13.804;2023-05-10T23:34:47;6.85;;;5.10;;
19032;SDS011;9649;51.042;13.804;2023-05-10T23:39:51;8.27;;;5.20;;
19032;SDS011;9649;51.042;13.804;2023-05-10T23:44:54;6.85;;;5.22;;
19032;SDS011;9649;51.042;13.804;2023-05-10T23:49:57;7.65;;;5.43;;
19032;SDS011;9649;51.042;13.804;2023-05-10T23:55:01;7.68;;;5.55;;
